sensor_id;sensor_type;location;lat;lon;timestamp;P1;durP1;ratioP1;P2;durP2;ratioP2
52564;SDS011;38460;53.106;7.004;2022-12-20T00:02:15;8.13;;;5.35;;
52564;SDS011;38460;53.106;7.004;2022-12-20T00:04:40;7.55;;;4.88;;
52564;SDS011;38460;53.106;7.004;2022-12-20T00:07:06;7.35;;;4.85;;
52564;SDS011;38460;53.106;7.004;2022-12-20T00:09:32;8.07;;;5.28;;
52564;SDS011;38460;53.106;7.004;2022-12-20T00:11:58;7.63;;;4.95;;
52564;SDS011;38460;53.106;7.004;2022-12-20T00:14:24;6.65;;;4.78;;
52564;SDS011;38460;53.106;7.004;2022-12-20T00:16:49;6.78;;;4.93;;
52564;SDS011;38460;53.106;7.004;2022-12-20T00:19:15;9.23;;;5.35;;
52564;SDS011;38460;53.106;7.004;2022-12-20T00:21:41;7.65;;;5.47;;
52564;SDS011;38460;53.106;7.004;2022-12-20T00:24:06;8.02;;;4.68;;
52564;SDS011;38460;53.106;7.004;2022-12-20T00:26:34;6.20;;;4.50;;
52564;SDS011;38460;53.106;7.004;2022-12-20T00:29:00;7.15;;;4.93;;
52564;SDS011;38460;53.106;7.004;2022-12-20T00:31:27;6.47;;;5.10;;
52564;SDS011;38460;53.106;7.004;2022-12-20T00:33:54;6.35;;;5.15;;
52564;SDS011;38460;53.106;7.004;2022-12-20T00:36:22;7.10;;;4.82;;
52564;SDS011;38460;53.106;7.004;2022-12-20T00:38:49;7.03;;;4.88;;
52564;SDS011;38460;53.106;7.004;2022-12-20T00:41:17;8.73;;;5.65;;
52564;SDS011;38460;53.106;7.004;2022-12-20T00:43:47;9.90;;;4.88;;
52564;SDS011;38460;53.106;7.004;2022-12-20T00:46:14;8.18;;;4.38;;
52564;SDS011;38460;53.106;7.004;2022-12-20T00:48:41;10.32;;;5.05;;
52564;SDS011;38460;53.106;7.004;2022-12-20T00:51:10;6.55;;;4.40;;
52564;SDS011;38460;53.106;7.004;2022-12-20T00:53:38;7.88;;;4.88;;
52564;SDS011;38460;53.106;7.004;2022-12-20T00:56:04;5.97;;;4.45;;
52564;SDS011;38460;53.106;7.004;2022-12-20T00:58:32;7.63;;;4.47;;
52564;SDS011;38460;53.106;7.004;2022-12-20T01:00:58;7.97;;;4.68;;
52564;SDS011;38460;53.106;7.004;2022-12-20T01:03:25;9.38;;;4.95;;
52564;SDS011;38460;53.106;7.004;2022-12-20T01:05:52;7.90;;;4.90;;
52564;SDS011;38460;53.106;7.004;2022-12-20T01:08:23;8.68;;;4.63;;
52564;SDS011;38460;53.106;7.004;2022-12-20T01:10:57;6.32;;;4.05;;
52564;SDS011;38460;53.106;7.004;2022-12-20T01:13:23;5.47;;;4.35;;
52564;SDS011;38460;53.106;7.004;2022-12-20T01:15:49;6.40;;;4.60;;
52564;SDS011;38460;53.106;7.004;2022-12-20T01:18:14;7.50;;;4.90;;
52564;SDS011;38460;53.106;7.004;2022-12-20T01:20:40;7.43;;;4.22;;
52564;SDS011;38460;53.106;7.004;2022-12-20T01:23:06;5.65;;;3.92;;
52564;SDS011;38460;53.106;7.004;2022-12-20T01:25:31;5.20;;;3.95;;
52564;SDS011;38460;53.106;7.004;2022-12-20T01:27:57;7.00;;;4.50;;
52564;SDS011;38460;53.106;7.004;2022-12-20T01:30:23;5.43;;;3.90;;
52564;SDS011;38460;53.106;7.004;2022-12-20T01:32:48;4.95;;;3.88;;
52564;SDS011;38460;53.106;7.004;2022-12-20T01:35:14;6.20;;;4.75;;
52564;SDS011;38460;53.106;7.004;2022-12-20T01:37:40;6.45;;;4.32;;
52564;SDS011;38460;53.106;7.004;2022-12-20T01:40:06;6.32;;;4.20;;
52564;SDS011;38460;53.106;7.004;2022-12-20T01:42:34;7.70;;;4.15;;
52564;SDS011;38460;53.106;7.004;2022-12-20T01:45:00;6.65;;;3.90;;
52564;SDS011;38460;53.106;7.004;2022-12-20T01:47:31;6.80;;;4.43;;
52564;SDS011;38460;53.106;7.004;2022-12-20T01:49:58;5.50;;;3.88;;
52564;SDS011;38460;53.106;7.004;2022-12-20T01:52:30;6.47;;;4.80;;
52564;SDS011;38460;53.106;7.004;2022-12-20T01:55:08;6.72;;;4.45;;
52564;SDS011;38460;53.106;7.004;2022-12-20T01:57:43;5.35;;;4.22;;
52564;SDS011;38460;53.106;7.004;2022-12-20T02:00:16;6.30;;;4.22;;
52564;SDS011;38460;53.106;7.004;2022-12-20T02:02:44;8.32;;;4.32;;
52564;SDS011;38460;53.106;7.004;2022-12-20T02:05:12;5.85;;;3.95;;
52564;SDS011;38460;53.106;7.004;2022-12-20T02:07:38;6.47;;;3.83;;
52564;SDS011;38460;53.106;7.004;2022-12-20T02:10:06;6.40;;;3.97;;
52564;SDS011;38460;53.106;7.004;2022-12-20T02:12:39;7.50;;;4.50;;
52564;SDS011;38460;53.106;7.004;2022-12-20T02:21:41;5.90;;;4.13;;
52564;SDS011;38460;53.106;7.004;2022-12-20T02:29:52;5.78;;;4.50;;
52564;SDS011;38460;53.106;7.004;2022-12-20T02:32:37;7.18;;;4.15;;
52564;SDS011;38460;53.106;7.004;2022-12-20T02:35:13;7.13;;;4.35;;
52564;SDS011;38460;53.106;7.004;2022-12-20T02:37:47;5.20;;;3.80;;
52564;SDS011;38460;53.106;7.004;2022-12-20T02:40:13;6.07;;;4.03;;
52564;SDS011;38460;53.106;7.004;2022-12-20T02:42:43;5.45;;;4.13;;
52564;SDS011;38460;53.106;7.004;2022-12-20T02:45:09;6.90;;;4.30;;
52564;SDS011;38460;53.106;7.004;2022-12-20T02:47:58;7.53;;;4.88;;
52564;SDS011;38460;53.106;7.004;2022-12-20T02:50:31;6.35;;;3.88;;
52564;SDS011;38460;53.106;7.004;2022-12-20T02:53:00;8.38;;;4.07;;
52564;SDS011;38460;53.106;7.004;2022-12-20T02:55:32;6.93;;;4.40;;
52564;SDS011;38460;53.106;7.004;2022-12-20T02:58:09;5.88;;;3.60;;
52564;SDS011;38460;53.106;7.004;2022-12-20T03:00:42;6.85;;;3.60;;
52564;SDS011;38460;53.106;7.004;2022-12-20T03:03:12;6.07;;;4.03;;
52564;SDS011;38460;53.106;7.004;2022-12-20T03:05:47;6.13;;;3.65;;
52564;SDS011;38460;53.106;7.004;2022-12-20T03:08:15;6.55;;;4.00;;
52564;SDS011;38460;53.106;7.004;2022-12-20T03:10:41;4.57;;;3.60;;
52564;SDS011;38460;53.106;7.004;2022-12-20T03:13:07;5.05;;;3.88;;
52564;SDS011;38460;53.106;7.004;2022-12-20T03:15:33;7.28;;;4.13;;
52564;SDS011;38460;53.106;7.004;2022-12-20T03:17:59;6.63;;;4.53;;
52564;SDS011;38460;53.106;7.004;2022-12-20T03:20:24;5.30;;;3.83;;
52564;SDS011;38460;53.106;7.004;2022-12-20T03:22:50;6.03;;;4.60;;
52564;SDS011;38460;53.106;7.004;2022-12-20T03:25:16;8.88;;;4.55;;
52564;SDS011;38460;53.106;7.004;2022-12-20T03:27:42;7.60;;;4.13;;
52564;SDS011;38460;53.106;7.004;2022-12-20T03:30:08;7.28;;;4.38;;
52564;SDS011;38460;53.106;7.004;2022-12-20T03:32:33;6.65;;;4.00;;
52564;SDS011;38460;53.106;7.004;2022-12-20T03:34:59;6.45;;;4.60;;
52564;SDS011;38460;53.106;7.004;2022-12-20T03:37:25;6.82;;;5.05;;
52564;SDS011;38460;53.106;7.004;2022-12-20T03:39:51;7.38;;;4.20;;
52564;SDS011;38460;53.106;7.004;2022-12-20T03:42:16;10.57;;;5.53;;
52564;SDS011;38460;53.106;7.004;2022-12-20T03:44:42;8.65;;;5.03;;
52564;SDS011;38460;53.106;7.004;2022-12-20T03:47:08;5.65;;;4.43;;
52564;SDS011;38460;53.106;7.004;2022-12-20T03:49:33;8.27;;;4.43;;
52564;SDS011;38460;53.106;7.004;2022-12-20T03:51:59;6.18;;;4.40;;
52564;SDS011;38460;53.106;7.004;2022-12-20T03:54:25;6.85;;;4.82;;
52564;SDS011;38460;53.106;7.004;2022-12-20T03:56:50;6.50;;;4.00;;
52564;SDS011;38460;53.106;7.004;2022-12-20T03:59:16;6.15;;;4.53;;
52564;SDS011;38460;53.106;7.004;2022-12-20T04:01:42;7.53;;;4.50;;
52564;SDS011;38460;53.106;7.004;2022-12-20T04:04:09;8.48;;;4.32;;
52564;SDS011;38460;53.106;7.004;2022-12-20T04:06:36;6.50;;;4.32;;
52564;SDS011;38460;53.106;7.004;2022-12-20T04:09:02;6.40;;;4.40;;
52564;SDS011;38460;53.106;7.004;2022-12-20T04:11:28;6.75;;;4.32;;
52564;SDS011;38460;53.106;7.004;2022-12-20T04:13:54;7.18;;;4.47;;
52564;SDS011;38460;53.106;7.004;2022-12-20T04:16:23;8.63;;;4.65;;
52564;SDS011;38460;53.106;7.004;2022-12-20T04:18:51;6.38;;;4.70;;
52564;SDS011;38460;53.106;7.004;2022-12-20T04:21:24;5.35;;;4.13;;
52564;SDS011;38460;53.106;7.004;2022-12-20T04:23:54;7.20;;;4.30;;
52564;SDS011;38460;53.106;7.004;2022-12-20T04:26:20;7.22;;;4.50;;
52564;SDS011;38460;53.106;7.004;2022-12-20T04:28:46;6.25;;;4.43;;
52564;SDS011;38460;53.106;7.004;2022-12-20T04:31:12;7.13;;;4.38;;
52564;SDS011;38460;53.106;7.004;2022-12-20T04:33:38;7.72;;;4.35;;
52564;SDS011;38460;53.106;7.004;2022-12-20T04:36:04;7.82;;;4.80;;
52564;SDS011;38460;53.106;7.004;2022-12-20T04:38:30;6.60;;;4.50;;
52564;SDS011;38460;53.106;7.004;2022-12-20T04:40:56;5.68;;;4.10;;
52564;SDS011;38460;53.106;7.004;2022-12-20T04:43:22;6.78;;;4.30;;
52564;SDS011;38460;53.106;7.004;2022-12-20T04:45:49;8.43;;;4.57;;
52564;SDS011;38460;53.106;7.004;2022-12-20T04:48:17;6.15;;;4.75;;
52564;SDS011;38460;53.106;7.004;2022-12-20T04:50:47;7.05;;;4.72;;
52564;SDS011;38460;53.106;7.004;2022-12-20T04:53:14;6.25;;;4.90;;
52564;SDS011;38460;53.106;7.004;2022-12-20T04:55:59;6.75;;;4.93;;
52564;SDS011;38460;53.106;7.004;2022-12-20T04:58:24;6.55;;;4.65;;
52564;SDS011;38460;53.106;7.004;2022-12-20T05:00:50;4.78;;;4.22;;
52564;SDS011;38460;53.106;7.004;2022-12-20T05:03:19;6.45;;;4.70;;
52564;SDS011;38460;53.106;7.004;2022-12-20T05:05:46;8.80;;;5.10;;
52564;SDS011;38460;53.106;7.004;2022-12-20T05:08:12;5.43;;;4.38;;
52564;SDS011;38460;53.106;7.004;2022-12-20T05:10:38;6.90;;;4.25;;
52564;SDS011;38460;53.106;7.004;2022-12-20T05:13:04;9.13;;;5.07;;
52564;SDS011;38460;53.106;7.004;2022-12-20T05:15:29;6.85;;;4.47;;
52564;SDS011;38460;53.106;7.004;2022-12-20T05:17:55;9.50;;;4.93;;
52564;SDS011;38460;53.106;7.004;2022-12-20T05:20:30;9.15;;;4.72;;
52564;SDS011;38460;53.106;7.004;2022-12-20T05:25:45;7.93;;;4.97;;
52564;SDS011;38460;53.106;7.004;2022-12-20T05:28:31;8.00;;;5.18;;
52564;SDS011;38460;53.106;7.004;2022-12-20T05:30:58;6.05;;;4.32;;
52564;SDS011;38460;53.106;7.004;2022-12-20T05:33:24;8.80;;;4.88;;
52564;SDS011;38460;53.106;7.004;2022-12-20T05:35:50;7.72;;;4.63;;
52564;SDS011;38460;53.106;7.004;2022-12-20T05:38:16;6.95;;;4.10;;
52564;SDS011;38460;53.106;7.004;2022-12-20T05:40:41;7.50;;;4.28;;
52564;SDS011;38460;53.106;7.004;2022-12-20T05:43:07;6.85;;;4.40;;
52564;SDS011;38460;53.106;7.004;2022-12-20T05:45:33;6.50;;;3.95;;
52564;SDS011;38460;53.106;7.004;2022-12-20T05:47:59;5.28;;;3.90;;
52564;SDS011;38460;53.106;7.004;2022-12-20T05:50:25;5.82;;;4.25;;
52564;SDS011;38460;53.106;7.004;2022-12-20T05:52:51;9.13;;;4.07;;
52564;SDS011;38460;53.106;7.004;2022-12-20T05:55:17;6.28;;;3.78;;
52564;SDS011;38460;53.106;7.004;2022-12-20T05:57:43;7.10;;;4.10;;
52564;SDS011;38460;53.106;7.004;2022-12-20T06:00:08;5.65;;;3.83;;
52564;SDS011;38460;53.106;7.004;2022-12-20T06:02:35;6.65;;;3.95;;
52564;SDS011;38460;53.106;7.004;2022-12-20T06:05:03;5.55;;;4.00;;
52564;SDS011;38460;53.106;7.004;2022-12-20T06:07:29;7.22;;;3.83;;
52564;SDS011;38460;53.106;7.004;2022-12-20T06:09:56;5.93;;;3.85;;
52564;SDS011;38460;53.106;7.004;2022-12-20T06:12:22;6.13;;;3.47;;
52564;SDS011;38460;53.106;7.004;2022-12-20T06:14:48;5.55;;;4.05;;
52564;SDS011;38460;53.106;7.004;2022-12-20T06:17:15;6.30;;;3.80;;
52564;SDS011;38460;53.106;7.004;2022-12-20T06:19:41;5.63;;;3.83;;
52564;SDS011;38460;53.106;7.004;2022-12-20T06:22:07;5.30;;;3.60;;
52564;SDS011;38460;53.106;7.004;2022-12-20T06:24:33;7.00;;;3.78;;
52564;SDS011;38460;53.106;7.004;2022-12-20T06:27:00;5.38;;;3.95;;
52564;SDS011;38460;53.106;7.004;2022-12-20T06:29:27;4.70;;;3.03;;
52564;SDS011;38460;53.106;7.004;2022-12-20T06:31:53;6.05;;;3.50;;
52564;SDS011;38460;53.106;7.004;2022-12-20T06:34:19;5.50;;;3.42;;
52564;SDS011;38460;53.106;7.004;2022-12-20T06:36:45;5.20;;;3.22;;
52564;SDS011;38460;53.106;7.004;2022-12-20T06:39:11;6.13;;;3.55;;
52564;SDS011;38460;53.106;7.004;2022-12-20T06:41:37;7.05;;;3.95;;
52564;SDS011;38460;53.106;7.004;2022-12-20T06:44:04;6.32;;;3.72;;
52564;SDS011;38460;53.106;7.004;2022-12-20T06:46:30;5.03;;;3.58;;
52564;SDS011;38460;53.106;7.004;2022-12-20T06:48:56;4.32;;;3.13;;
52564;SDS011;38460;53.106;7.004;2022-12-20T06:51:22;5.60;;;3.42;;
52564;SDS011;38460;53.106;7.004;2022-12-20T06:53:48;5.03;;;3.83;;
52564;SDS011;38460;53.106;7.004;2022-12-20T06:56:14;7.75;;;3.85;;
52564;SDS011;38460;53.106;7.004;2022-12-20T06:58:40;5.63;;;3.45;;
52564;SDS011;38460;53.106;7.004;2022-12-20T07:01:05;6.47;;;3.70;;
52564;SDS011;38460;53.106;7.004;2022-12-20T07:03:31;8.98;;;4.07;;
52564;SDS011;38460;53.106;7.004;2022-12-20T07:05:57;6.60;;;3.95;;
52564;SDS011;38460;53.106;7.004;2022-12-20T07:08:23;6.53;;;4.50;;
52564;SDS011;38460;53.106;7.004;2022-12-20T07:10:49;7.90;;;4.38;;
52564;SDS011;38460;53.106;7.004;2022-12-20T07:13:17;6.25;;;4.32;;
52564;SDS011;38460;53.106;7.004;2022-12-20T07:15:43;7.47;;;4.20;;
52564;SDS011;38460;53.106;7.004;2022-12-20T07:18:09;7.93;;;4.20;;
52564;SDS011;38460;53.106;7.004;2022-12-20T07:20:35;7.47;;;4.60;;
52564;SDS011;38460;53.106;7.004;2022-12-20T07:23:00;8.68;;;4.68;;
52564;SDS011;38460;53.106;7.004;2022-12-20T07:25:26;8.02;;;4.82;;
52564;SDS011;38460;53.106;7.004;2022-12-20T07:27:52;8.65;;;5.30;;
52564;SDS011;38460;53.106;7.004;2022-12-20T07:30:18;6.63;;;4.78;;
52564;SDS011;38460;53.106;7.004;2022-12-20T07:32:45;6.45;;;4.88;;
52564;SDS011;38460;53.106;7.004;2022-12-20T07:35:11;9.27;;;5.40;;
52564;SDS011;38460;53.106;7.004;2022-12-20T07:37:38;7.82;;;5.40;;
52564;SDS011;38460;53.106;7.004;2022-12-20T07:40:04;6.78;;;4.82;;
52564;SDS011;38460;53.106;7.004;2022-12-20T07:42:31;5.93;;;4.53;;
52564;SDS011;38460;53.106;7.004;2022-12-20T07:44:57;7.88;;;5.82;;
52564;SDS011;38460;53.106;7.004;2022-12-20T07:47:22;9.45;;;5.35;;
52564;SDS011;38460;53.106;7.004;2022-12-20T07:49:48;7.68;;;5.53;;
52564;SDS011;38460;53.106;7.004;2022-12-20T07:52:14;8.27;;;5.55;;
52564;SDS011;38460;53.106;7.004;2022-12-20T07:54:45;8.30;;;5.57;;
52564;SDS011;38460;53.106;7.004;2022-12-20T07:57:16;10.70;;;5.53;;
52564;SDS011;38460;53.106;7.004;2022-12-20T07:59:48;8.57;;;5.93;;
52564;SDS011;38460;53.106;7.004;2022-12-20T08:02:20;9.95;;;5.88;;
52564;SDS011;38460;53.106;7.004;2022-12-20T08:04:50;7.18;;;5.43;;
52564;SDS011;38460;53.106;7.004;2022-12-20T08:07:18;11.07;;;6.38;;
52564;SDS011;38460;53.106;7.004;2022-12-20T08:09:44;8.48;;;5.50;;
52564;SDS011;38460;53.106;7.004;2022-12-20T08:12:11;7.55;;;5.60;;
52564;SDS011;38460;53.106;7.004;2022-12-20T08:14:40;7.22;;;5.40;;
52564;SDS011;38460;53.106;7.004;2022-12-20T08:17:06;8.02;;;6.00;;
52564;SDS011;38460;53.106;7.004;2022-12-20T08:19:31;7.50;;;5.50;;
52564;SDS011;38460;53.106;7.004;2022-12-20T08:21:57;9.60;;;6.72;;
52564;SDS011;38460;53.106;7.004;2022-12-20T08:24:23;9.13;;;6.22;;
52564;SDS011;38460;53.106;7.004;2022-12-20T08:26:49;7.85;;;6.35;;
52564;SDS011;38460;53.106;7.004;2022-12-20T08:29:14;9.10;;;5.78;;
52564;SDS011;38460;53.106;7.004;2022-12-20T08:31:40;7.65;;;5.75;;
52564;SDS011;38460;53.106;7.004;2022-12-20T08:34:06;9.07;;;5.63;;
52564;SDS011;38460;53.106;7.004;2022-12-20T08:36:33;8.27;;;5.50;;
52564;SDS011;38460;53.106;7.004;2022-12-20T08:39:02;6.38;;;5.45;;
52564;SDS011;38460;53.106;7.004;2022-12-20T08:41:29;6.68;;;5.30;;
52564;SDS011;38460;53.106;7.004;2022-12-20T08:43:54;7.28;;;4.88;;
52564;SDS011;38460;53.106;7.004;2022-12-20T08:46:20;7.28;;;4.45;;
52564;SDS011;38460;53.106;7.004;2022-12-20T08:48:46;6.78;;;4.53;;
52564;SDS011;38460;53.106;7.004;2022-12-20T08:51:11;6.05;;;4.53;;
52564;SDS011;38460;53.106;7.004;2022-12-20T08:53:37;6.20;;;4.47;;
52564;SDS011;38460;53.106;7.004;2022-12-20T08:56:07;7.03;;;4.47;;
52564;SDS011;38460;53.106;7.004;2022-12-20T08:58:38;6.10;;;4.10;;
52564;SDS011;38460;53.106;7.004;2022-12-20T09:01:06;5.93;;;4.28;;
52564;SDS011;38460;53.106;7.004;2022-12-20T09:03:34;11.35;;;4.57;;
52564;SDS011;38460;53.106;7.004;2022-12-20T09:06:03;7.28;;;4.47;;
52564;SDS011;38460;53.106;7.004;2022-12-20T09:08:30;5.72;;;3.78;;
52564;SDS011;38460;53.106;7.004;2022-12-20T09:13:53;6.30;;;3.63;;
52564;SDS011;38460;53.106;7.004;2022-12-20T09:16:22;5.72;;;3.83;;
52564;SDS011;38460;53.106;7.004;2022-12-20T09:18:50;5.25;;;3.40;;
52564;SDS011;38460;53.106;7.004;2022-12-20T09:21:17;6.68;;;3.70;;
52564;SDS011;38460;53.106;7.004;2022-12-20T09:23:44;6.93;;;3.45;;
52564;SDS011;38460;53.106;7.004;2022-12-20T09:26:10;5.97;;;3.58;;
52564;SDS011;38460;53.106;7.004;2022-12-20T09:28:38;5.00;;;3.80;;
52564;SDS011;38460;53.106;7.004;2022-12-20T09:31:05;4.60;;;3.28;;
52564;SDS011;38460;53.106;7.004;2022-12-20T09:33:33;5.18;;;3.30;;
52564;SDS011;38460;53.106;7.004;2022-12-20T09:36:00;5.55;;;3.63;;
52564;SDS011;38460;53.106;7.004;2022-12-20T09:38:27;6.80;;;3.33;;
52564;SDS011;38460;53.106;7.004;2022-12-20T09:40:54;5.45;;;3.33;;
52564;SDS011;38460;53.106;7.004;2022-12-20T09:43:22;4.88;;;3.30;;
52564;SDS011;38460;53.106;7.004;2022-12-20T09:45:53;5.60;;;3.03;;
52564;SDS011;38460;53.106;7.004;2022-12-20T09:56:40;6.85;;;3.88;;
52564;SDS011;38460;53.106;7.004;2022-12-20T09:59:13;4.93;;;3.17;;
52564;SDS011;38460;53.106;7.004;2022-12-20T10:01:44;6.03;;;3.10;;
52564;SDS011;38460;53.106;7.004;2022-12-20T10:04:21;4.70;;;3.88;;
52564;SDS011;38460;53.106;7.004;2022-12-20T10:09:56;6.18;;;3.70;;
52564;SDS011;38460;53.106;7.004;2022-12-20T10:15:32;6.15;;;3.95;;
52564;SDS011;38460;53.106;7.004;2022-12-20T10:23:24;9.85;;;4.00;;
52564;SDS011;38460;53.106;7.004;2022-12-20T10:25:56;5.47;;;3.70;;
52564;SDS011;38460;53.106;7.004;2022-12-20T10:28:25;6.60;;;3.80;;
52564;SDS011;38460;53.106;7.004;2022-12-20T10:30:53;6.03;;;3.38;;
52564;SDS011;38460;53.106;7.004;2022-12-20T10:33:23;7.55;;;3.80;;
52564;SDS011;38460;53.106;7.004;2022-12-20T10:35:51;5.22;;;3.78;;
52564;SDS011;38460;53.106;7.004;2022-12-20T10:38:17;6.90;;;4.07;;
52564;SDS011;38460;53.106;7.004;2022-12-20T10:43:20;6.07;;;3.88;;
52564;SDS011;38460;53.106;7.004;2022-12-20T10:45:57;4.50;;;3.40;;
52564;SDS011;38460;53.106;7.004;2022-12-20T10:48:32;5.60;;;3.47;;
52564;SDS011;38460;53.106;7.004;2022-12-20T10:51:11;5.80;;;3.45;;
52564;SDS011;38460;53.106;7.004;2022-12-20T10:56:24;7.82;;;4.15;;
52564;SDS011;38460;53.106;7.004;2022-12-20T11:01:46;8.40;;;4.07;;
52564;SDS011;38460;53.106;7.004;2022-12-20T11:04:33;5.93;;;4.15;;
52564;SDS011;38460;53.106;7.004;2022-12-20T11:07:02;10.13;;;4.55;;
52564;SDS011;38460;53.106;7.004;2022-12-20T11:09:51;6.45;;;3.63;;
52564;SDS011;38460;53.106;7.004;2022-12-20T11:12:20;6.38;;;3.75;;
52564;SDS011;38460;53.106;7.004;2022-12-20T11:14:45;5.78;;;3.72;;
52564;SDS011;38460;53.106;7.004;2022-12-20T11:22:42;6.40;;;3.88;;
52564;SDS011;38460;53.106;7.004;2022-12-20T11:33:59;5.53;;;3.85;;
52564;SDS011;38460;53.106;7.004;2022-12-20T11:37:08;8.13;;;4.07;;
52564;SDS011;38460;53.106;7.004;2022-12-20T11:39:50;7.53;;;4.05;;
52564;SDS011;38460;53.106;7.004;2022-12-20T11:42:32;5.55;;;4.07;;
52564;SDS011;38460;53.106;7.004;2022-12-20T11:50:58;6.40;;;4.60;;
52564;SDS011;38460;53.106;7.004;2022-12-20T11:53:40;5.00;;;3.78;;
52564;SDS011;38460;53.106;7.004;2022-12-20T11:56:15;5.45;;;4.15;;
52564;SDS011;38460;53.106;7.004;2022-12-20T11:58:49;6.32;;;3.92;;
52564;SDS011;38460;53.106;7.004;2022-12-20T12:01:39;6.55;;;3.40;;
52564;SDS011;38460;53.106;7.004;2022-12-20T12:04:20;6.80;;;3.40;;
52564;SDS011;38460;53.106;7.004;2022-12-20T12:07:07;4.63;;;3.30;;
52564;SDS011;38460;53.106;7.004;2022-12-20T12:09:44;5.68;;;3.55;;
52564;SDS011;38460;53.106;7.004;2022-12-20T12:12:23;6.38;;;3.70;;
52564;SDS011;38460;53.106;7.004;2022-12-20T12:18:19;6.07;;;3.55;;
52564;SDS011;38460;53.106;7.004;2022-12-20T12:29:09;4.20;;;3.50;;
52564;SDS011;38460;53.106;7.004;2022-12-20T12:42:52;4.95;;;3.28;;
52564;SDS011;38460;53.106;7.004;2022-12-20T12:51:06;3.83;;;3.40;;
52564;SDS011;38460;53.106;7.004;2022-12-20T13:04:27;5.18;;;3.50;;
52564;SDS011;38460;53.106;7.004;2022-12-20T13:09:46;5.77;;;3.73;;
52564;SDS011;38460;53.106;7.004;2022-12-20T13:17:54;6.05;;;4.13;;
52564;SDS011;38460;53.106;7.004;2022-12-20T13:20:34;6.28;;;4.55;;
52564;SDS011;38460;53.106;7.004;2022-12-20T13:30:43;5.63;;;4.70;;
52564;SDS011;38460;53.106;7.004;2022-12-20T13:33:20;7.07;;;5.25;;
52564;SDS011;38460;53.106;7.004;2022-12-20T13:43:53;6.63;;;5.67;;
52564;SDS011;38460;53.106;7.004;2022-12-20T13:49:18;7.47;;;5.35;;
52564;SDS011;38460;53.106;7.004;2022-12-20T13:52:04;8.45;;;5.72;;
52564;SDS011;38460;53.106;7.004;2022-12-20T13:54:49;7.10;;;5.30;;
52564;SDS011;38460;53.106;7.004;2022-12-20T13:57:18;7.35;;;5.20;;
52564;SDS011;38460;53.106;7.004;2022-12-20T13:59:51;7.18;;;5.47;;
52564;SDS011;38460;53.106;7.004;2022-12-20T14:02:23;7.03;;;5.47;;
52564;SDS011;38460;53.106;7.004;2022-12-20T14:04:57;6.80;;;5.85;;
52564;SDS011;38460;53.106;7.004;2022-12-20T14:07:26;6.28;;;5.53;;
52564;SDS011;38460;53.106;7.004;2022-12-20T14:09:54;6.50;;;5.35;;
52564;SDS011;38460;53.106;7.004;2022-12-20T14:12:22;7.60;;;5.80;;
52564;SDS011;38460;53.106;7.004;2022-12-20T14:14:49;7.50;;;5.65;;
52564;SDS011;38460;53.106;7.004;2022-12-20T14:17:23;7.70;;;6.10;;
52564;SDS011;38460;53.106;7.004;2022-12-20T14:20:03;6.22;;;5.10;;
52564;SDS011;38460;53.106;7.004;2022-12-20T14:25:29;8.07;;;5.40;;
52564;SDS011;38460;53.106;7.004;2022-12-20T14:27:55;6.85;;;5.47;;
52564;SDS011;38460;53.106;7.004;2022-12-20T14:30:29;7.47;;;5.57;;
52564;SDS011;38460;53.106;7.004;2022-12-20T14:32:58;7.55;;;5.43;;
52564;SDS011;38460;53.106;7.004;2022-12-20T14:35:25;8.13;;;6.05;;
52564;SDS011;38460;53.106;7.004;2022-12-20T14:37:58;6.75;;;5.82;;
52564;SDS011;38460;53.106;7.004;2022-12-20T14:40:28;9.50;;;5.97;;
52564;SDS011;38460;53.106;7.004;2022-12-20T14:42:54;8.65;;;5.95;;
52564;SDS011;38460;53.106;7.004;2022-12-20T14:45:21;7.10;;;6.10;;
52564;SDS011;38460;53.106;7.004;2022-12-20T14:47:55;8.40;;;6.03;;
52564;SDS011;38460;53.106;7.004;2022-12-20T14:50:26;8.52;;;6.78;;
52564;SDS011;38460;53.106;7.004;2022-12-20T14:52:56;9.48;;;6.63;;
52564;SDS011;38460;53.106;7.004;2022-12-20T14:55:24;8.50;;;6.50;;
52564;SDS011;38460;53.106;7.004;2022-12-20T14:57:58;8.35;;;6.50;;
52564;SDS011;38460;53.106;7.004;2022-12-20T15:00:29;9.40;;;7.00;;
52564;SDS011;38460;53.106;7.004;2022-12-20T15:03:10;7.97;;;6.45;;
52564;SDS011;38460;53.106;7.004;2022-12-20T15:05:45;8.55;;;6.70;;
52564;SDS011;38460;53.106;7.004;2022-12-20T15:13:37;9.48;;;7.30;;
52564;SDS011;38460;53.106;7.004;2022-12-20T15:16:16;10.85;;;8.00;;
52564;SDS011;38460;53.106;7.004;2022-12-20T15:18:45;9.82;;;7.85;;
52564;SDS011;38460;53.106;7.004;2022-12-20T15:21:16;10.07;;;7.72;;
52564;SDS011;38460;53.106;7.004;2022-12-20T15:23:56;11.13;;;8.68;;
52564;SDS011;38460;53.106;7.004;2022-12-20T15:26:27;10.35;;;7.88;;
52564;SDS011;38460;53.106;7.004;2022-12-20T15:28:55;9.07;;;7.78;;
52564;SDS011;38460;53.106;7.004;2022-12-20T15:31:22;9.20;;;7.70;;
52564;SDS011;38460;53.106;7.004;2022-12-20T15:33:49;12.77;;;8.40;;
52564;SDS011;38460;53.106;7.004;2022-12-20T15:36:17;9.52;;;8.32;;
52564;SDS011;38460;53.106;7.004;2022-12-20T15:38:44;12.20;;;9.30;;
52564;SDS011;38460;53.106;7.004;2022-12-20T15:43:56;11.68;;;9.50;;
52564;SDS011;38460;53.106;7.004;2022-12-20T15:46:24;12.13;;;9.50;;
52564;SDS011;38460;53.106;7.004;2022-12-20T15:48:51;11.57;;;9.60;;
52564;SDS011;38460;53.106;7.004;2022-12-20T15:53:52;14.50;;;11.52;;
52564;SDS011;38460;53.106;7.004;2022-12-20T15:56:20;13.23;;;11.40;;
52564;SDS011;38460;53.106;7.004;2022-12-20T15:58:47;13.45;;;10.63;;
52564;SDS011;38460;53.106;7.004;2022-12-20T16:01:24;13.95;;;11.23;;
52564;SDS011;38460;53.106;7.004;2022-12-20T16:03:53;12.10;;;9.98;;
52564;SDS011;38460;53.106;7.004;2022-12-20T16:06:18;13.88;;;10.80;;
52564;SDS011;38460;53.106;7.004;2022-12-20T16:08:44;13.20;;;10.85;;
52564;SDS011;38460;53.106;7.004;2022-12-20T16:11:29;14.15;;;11.15;;
52564;SDS011;38460;53.106;7.004;2022-12-20T16:13:55;14.63;;;11.60;;
52564;SDS011;38460;53.106;7.004;2022-12-20T16:16:23;16.38;;;11.90;;
52564;SDS011;38460;53.106;7.004;2022-12-20T16:18:54;16.20;;;12.15;;
52564;SDS011;38460;53.106;7.004;2022-12-20T16:21:21;16.65;;;12.50;;
52564;SDS011;38460;53.106;7.004;2022-12-20T16:23:49;16.42;;;13.15;;
52564;SDS011;38460;53.106;7.004;2022-12-20T16:26:16;18.50;;;16.08;;
52564;SDS011;38460;53.106;7.004;2022-12-20T16:28:46;17.40;;;13.65;;
52564;SDS011;38460;53.106;7.004;2022-12-20T16:31:32;15.02;;;12.48;;
52564;SDS011;38460;53.106;7.004;2022-12-20T16:34:00;14.23;;;11.60;;
52564;SDS011;38460;53.106;7.004;2022-12-20T16:36:28;17.55;;;13.32;;
52564;SDS011;38460;53.106;7.004;2022-12-20T16:38:54;16.02;;;12.63;;
52564;SDS011;38460;53.106;7.004;2022-12-20T16:41:21;15.38;;;12.70;;
52564;SDS011;38460;53.106;7.004;2022-12-20T16:43:49;18.38;;;12.95;;
52564;SDS011;38460;53.106;7.004;2022-12-20T16:46:16;17.13;;;14.15;;
52564;SDS011;38460;53.106;7.004;2022-12-20T16:48:44;14.93;;;12.35;;
52564;SDS011;38460;53.106;7.004;2022-12-20T16:54:18;19.00;;;14.48;;
52564;SDS011;38460;53.106;7.004;2022-12-20T16:56:46;16.17;;;12.70;;
52564;SDS011;38460;53.106;7.004;2022-12-20T16:59:15;16.85;;;12.80;;
52564;SDS011;38460;53.106;7.004;2022-12-20T17:01:41;15.57;;;12.68;;
52564;SDS011;38460;53.106;7.004;2022-12-20T17:04:10;16.80;;;12.77;;
52564;SDS011;38460;53.106;7.004;2022-12-20T17:06:39;16.38;;;13.07;;
52564;SDS011;38460;53.106;7.004;2022-12-20T17:09:06;17.75;;;14.45;;
52564;SDS011;38460;53.106;7.004;2022-12-20T17:11:32;17.05;;;13.73;;
52564;SDS011;38460;53.106;7.004;2022-12-20T17:13:58;19.45;;;16.55;;
52564;SDS011;38460;53.106;7.004;2022-12-20T17:16:24;15.50;;;12.85;;
52564;SDS011;38460;53.106;7.004;2022-12-20T17:18:51;16.58;;;13.48;;
52564;SDS011;38460;53.106;7.004;2022-12-20T17:21:21;19.40;;;13.75;;
52564;SDS011;38460;53.106;7.004;2022-12-20T17:23:50;15.90;;;12.63;;
52564;SDS011;38460;53.106;7.004;2022-12-20T17:26:19;18.10;;;13.07;;